Wetterdaten: Woche 27.11.17 - 03.12.17 (KW48)
Datum Zeit Temp. A. Feuchte A. Luftdruck Regen Wind Richtung Taupunkt Windchill Windben
27.11.2017 00:00 2,9 C 73 % 1023,3 hPa 0,0 l/m 11,4 km/h N -1,6 C -1,2 C 27,4 km/h
27.11.2017 01:00 2,7 C 73 % 1023,4 hPa 0,0 l/m 10,6 km/h N -1,6 C -0,8 C 27,0 km/h
27.11.2017 02:00 2,8 C 73 % 1023,5 hPa 0,0 l/m 7,1 km/h N -1,6 C 2,1 C 21,3 km/h
27.11.2017 03:00 3,0 C 73 % 1023,4 hPa 0,0 l/m 9,1 km/h N -1,4 C 0,6 C 24,1 km/h
27.11.2017 04:00 2,9 C 72 % 1023,7 hPa 0,0 l/m 7,9 km/h N -1,7 C 1,5 C 22,1 km/h
27.11.2017 05:00 3,0 C 72 % 1023,8 hPa 0,0 l/m 8,1 km/h N -1,5 C 1,3 C 20,9 km/h
27.11.2017 06:00 3,0 C 73 % 1024,1 hPa 0,0 l/m 8,4 km/h N -1,4 C 1,2 C 22,9 km/h
27.11.2017 07:00 3,1 C 74 % 1024,4 hPa 0,0 l/m 8,4 km/h N -1,0 C 1,3 C 21,7 km/h
27.11.2017 08:00 3,4 C 73 % 1024,7 hPa 0,0 l/m 8,0 km/h N -1,0 C 2,0 C 20,5 km/h
27.11.2017 09:00 3,9 C 71 % 1024,8 hPa 0,0 l/m 10,5 km/h N -0,8 C 0,5 C 28,6 km/h
27.11.2017 10:00 4,6 C 68 % 1024,8 hPa 0,0 l/m 11,0 km/h N -0,8 C 1,0 C 27,8 km/h
27.11.2017 11:00 5,3 C 63 % 1024,3 hPa 0,0 l/m 13,9 km/h N -1,1 C 0,1 C 33,8 km/h
27.11.2017 12:00 5,6 C 61 % 1024,0 hPa 0,0 l/m 11,3 km/h N -1,4 C 1,9 C 26,5 km/h
27.11.2017 13:00 5,6 C 62 % 1023,4 hPa 0,0 l/m 8,6 km/h N -1,1 C 3,8 C 21,7 km/h
27.11.2017 14:00 5,8 C 59 % 1023,1 hPa 0,0 l/m 6,5 km/h N -1,5 C 5,3 C 21,3 km/h
27.11.2017 15:00 5,1 C 61 % 1022,8 hPa 0,0 l/m 4,9 km/h N -1,7 C 5,1 C 21,7 km/h
27.11.2017 16:00 4,0 C 66 % 1022,5 hPa 0,0 l/m 1,6 km/h N -1,8 C 4,0 C 9,3 km/h
27.11.2017 17:00 3,3 C 68 % 1022,2 hPa 0,0 l/m 0,8 km/h N -2,1 C 3,3 C 8,1 km/h
27.11.2017 18:00 2,1 C 70 % 1021,9 hPa 0,0 l/m 0,2 km/h N -2,9 C 2,1 C 2,0 km/h
27.11.2017 19:00 -0,1 C 73 % 1021,7 hPa 0,0 l/m 0,0 km/h N -4,4 C -0,1 C 0,0 km/h
27.11.2017 20:00 -1,6 C 78 % 1021,4 hPa 0,0 l/m 0,0 km/h N -4,9 C -1,6 C 0,4 km/h
27.11.2017 21:00 -2,3 C 82 % 1020,8 hPa 0,0 l/m 0,0 km/h N -5,0 C -2,3 C 0,0 km/h
27.11.2017 22:00 -2,3 C 83 % 1020,0 hPa 0,0 l/m 0,0 km/h N -4,8 C -2,3 C 0,0 km/h
27.11.2017 23:00 -2,7 C 83 % 1019,4 hPa 0,0 l/m 0,0 km/h N -5,1 C -2,7 C 0,0 km/h
28.11.2017 00:00 -2,5 C 84 % 1018,4 hPa 0,0 l/m 0,0 km/h N -4,8 C -2,5 C 0,0 km/h
28.11.2017 01:00 -2,8 C 84 % 1017,8 hPa 0,0 l/m 0,0 km/h N -5,1 C -2,8 C 0,0 km/h
28.11.2017 02:00 -3,2 C 84 % 1017,3 hPa 0,0 l/m 0,0 km/h N -5,5 C -3,2 C 0,4 km/h
28.11.2017 03:00 -2,4 C 84 % 1016,3 hPa 0,0 l/m 0,0 km/h N -4,7 C -2,4 C 0,4 km/h
28.11.2017 04:00 -2,2 C 84 % 1015,6 hPa 0,0 l/m 0,0 km/h N -4,5 C -2,2 C 1,2 km/h
28.11.2017 05:00 -2,3 C 84 % 1015,2 hPa 0,0 l/m 0,0 km/h N -4,6 C -2,3 C 0,4 km/h
28.11.2017 06:00 -2,4 C 84 % 1014,9 hPa 0,0 l/m 0,2 km/h N -4,7 C -2,4 C 2,8 km/h
28.11.2017 07:00 -1,7 C 84 % 1014,8 hPa 0,0 l/m 0,3 km/h N -4,0 C -1,7 C 3,2 km/h
28.11.2017 08:00 -0,7 C 84 % 1014,8 hPa 0,0 l/m 0,1 km/h N -3,0 C -0,7 C 1,2 km/h
28.11.2017 09:00 0,3 C 84 % 1014,5 hPa 0,0 l/m 0,0 km/h N -2,1 C 0,3 C 0,8 km/h
28.11.2017 10:00 1,7 C 84 % 1013,9 hPa 0,0 l/m 0,1 km/h N -0,8 C 1,7 C 0,8 km/h
28.11.2017 11:00 3,2 C 79 % 1012,5 hPa 0,0 l/m 0,2 km/h N -0,2 C 3,2 C 4,0 km/h
28.11.2017 12:00 5,8 C 64 % 1011,5 hPa 0,0 l/m 1,3 km/h N -0,5 C 5,8 C 8,0 km/h
28.11.2017 13:00 6,7 C 60 % 1010,9 hPa 0,0 l/m 1,0 km/h N -0,6 C 6,7 C 6,4 km/h
28.11.2017 14:00 6,0 C 63 % 1010,6 hPa 0,0 l/m 0,1 km/h N -0,5 C 6,0 C 2,4 km/h
28.11.2017 15:00 5,4 C 66 % 1010,5 hPa 0,0 l/m 0,0 km/h N -0,4 C 5,4 C 1,2 km/h
28.11.2017 16:00 4,2 C 69 % 1010,8 hPa 0,0 l/m 0,2 km/h N -0,9 C 4,2 C 1,6 km/h
28.11.2017 17:00 2,8 C 73 % 1010,8 hPa 0,0 l/m 0,0 km/h N -1,6 C 2,8 C 0,0 km/h
28.11.2017 18:00 1,9 C 78 % 1010,7 hPa 0,0 l/m 0,0 km/h N -1,6 C 1,9 C 0,0 km/h
28.11.2017 19:00 1,7 C 80 % 1010,5 hPa 0,0 l/m 0,0 km/h N -1,4 C 1,7 C 0,0 km/h
28.11.2017 20:00 1,8 C 80 % 1010,1 hPa 0,0 l/m 0,0 km/h N -1,2 C 1,8 C 0,8 km/h
28.11.2017 21:00 1,9 C 80 % 1009,8 hPa 0,0 l/m 0,0 km/h N -1,3 C 1,9 C 0,0 km/h
28.11.2017 22:00 1,8 C 80 % 1009,4 hPa 0,0 l/m 0,0 km/h N -1,3 C 1,8 C 0,0 km/h
28.11.2017 23:00 1,8 C 80 % 1009,0 hPa 0,0 l/m 0,0 km/h N -1,3 C 1,8 C 0,0 km/h
29.11.2017 00:00 1,5 C 80 % 1008,7 hPa 0,0 l/m 0,0 km/h N -1,5 C 1,5 C 0,0 km/h
29.11.2017 01:00 1,0 C 81 % 1008,6 hPa 0,0 l/m 0,0 km/h N -1,9 C 1,0 C 0,0 km/h
29.11.2017 02:00 0,7 C 82 % 1008,3 hPa 0,0 l/m 0,0 km/h N -2,0 C 0,7 C 0,0 km/h
29.11.2017 03:00 0,6 C 83 % 1008,0 hPa 0,0 l/m 0,0 km/h N -1,9 C 0,6 C 0,0 km/h
29.11.2017 04:00 0,6 C 83 % 1008,0 hPa 0,0 l/m 0,0 km/h N -1,9 C 0,6 C 0,0 km/h
29.11.2017 05:00 0,7 C 83 % 1008,2 hPa 0,0 l/m 0,0 km/h N -1,9 C 0,7 C 0,0 km/h
29.11.2017 06:00 0,8 C 83 % 1008,3 hPa 0,0 l/m 0,0 km/h N -1,8 C 0,8 C 0,0 km/h
29.11.2017 07:00 0,9 C 83 % 1008,4 hPa 0,3 l/m 0,0 km/h N -1,7 C 0,9 C 0,0 km/h
29.11.2017 08:00 1,2 C 83 % 1008,8 hPa 0,8 l/m 0,0 km/h N -1,4 C 1,2 C 0,0 km/h
29.11.2017 09:00 1,8 C 84 % 1008,9 hPa 1,3 l/m 0,0 km/h N -0,7 C 1,8 C 0,0 km/h
29.11.2017 10:00 2,2 C 83 % 1009,0 hPa 0,3 l/m 0,0 km/h N -0,4 C 2,2 C 0,0 km/h
29.11.2017 11:00 2,6 C 84 % 1008,5 hPa 0,0 l/m 0,0 km/h N 0,2 C 2,6 C 0,0 km/h
29.11.2017 12:00 2,8 C 84 % 1008,3 hPa 0,0 l/m 0,0 km/h N 0,3 C 2,8 C 0,0 km/h
29.11.2017 13:00 3,0 C 84 % 1008,0 hPa 0,0 l/m 0,0 km/h N 0,5 C 3,0 C 0,0 km/h
29.11.2017 14:00 3,2 C 84 % 1007,5 hPa 0,0 l/m 0,0 km/h N 0,7 C 3,2 C 0,0 km/h
29.11.2017 15:00 3,2 C 84 % 1007,5 hPa 0,0 l/m 0,0 km/h N 0,7 C 3,2 C 2,4 km/h
29.11.2017 16:00 3,1 C 84 % 1007,3 hPa 0,0 l/m 0,0 km/h N 0,5 C 3,1 C 0,8 km/h
29.11.2017 17:00 2,8 C 84 % 1007,3 hPa 0,0 l/m 0,0 km/h N 0,4 C 2,8 C 1,6 km/h
29.11.2017 18:00 2,7 C 84 % 1006,7 hPa 0,5 l/m 0,1 km/h N 0,1 C 2,7 C 3,2 km/h
29.11.2017 19:00 2,3 C 84 % 1006,7 hPa 2,1 l/m 0,0 km/h N -0,1 C 2,3 C 0,4 km/h
29.11.2017 20:00 2,3 C 84 % 1006,3 hPa 1,0 l/m 0,0 km/h N -0,2 C 2,3 C 0,4 km/h
29.11.2017 21:00 2,4 C 84 % 1006,0 hPa 0,5 l/m 0,0 km/h N 0,0 C 2,4 C 0,4 km/h
29.11.2017 22:00 2,1 C 84 % 1005,8 hPa 0,5 l/m 0,1 km/h N -0,3 C 2,1 C 4,4 km/h
29.11.2017 23:00 1,1 C 84 % 1005,5 hPa 0,0 l/m 0,0 km/h N -1,3 C 1,1 C 1,2 km/h
30.11.2017 00:00 0,7 C 84 % 1004,8 hPa 0,0 l/m 0,0 km/h N -1,7 C 0,7 C 1,6 km/h
30.11.2017 01:00 0,6 C 84 % 1004,0 hPa 0,0 l/m 0,0 km/h N -1,8 C 0,6 C 1,2 km/h
30.11.2017 02:00 0,4 C 84 % 1003,7 hPa 0,0 l/m 0,0 km/h N -2,0 C 0,4 C 0,0 km/h
30.11.2017 03:00 0,3 C 84 % 1003,0 hPa 0,0 l/m 0,0 km/h N -2,1 C 0,3 C 0,0 km/h
30.11.2017 04:00 0,2 C 84 % 1002,3 hPa 0,0 l/m 0,0 km/h N -2,2 C 0,2 C 0,0 km/h
30.11.2017 05:00 0,3 C 84 % 1001,8 hPa 0,0 l/m 0,0 km/h N -2,1 C 0,3 C 0,0 km/h
30.11.2017 06:00 0,3 C 84 % 1001,3 hPa 0,0 l/m 0,0 km/h N -2,1 C 0,3 C 0,0 km/h
30.11.2017 07:00 0,3 C 84 % 1001,3 hPa 0,0 l/m 0,0 km/h N -2,1 C 0,3 C 0,0 km/h
30.11.2017 08:00 0,4 C 84 % 1001,2 hPa 0,0 l/m 0,0 km/h N -2,0 C 0,4 C 0,4 km/h
30.11.2017 09:00 0,5 C 84 % 1001,1 hPa 0,0 l/m 1,3 km/h N -1,9 C 0,5 C 8,0 km/h
30.11.2017 10:00 0,7 C 84 % 1001,3 hPa 0,0 l/m 5,0 km/h N -1,7 C 0,7 C 15,7 km/h
30.11.2017 11:00 1,1 C 84 % 1000,8 hPa 0,0 l/m 5,7 km/h N -1,3 C 1,1 C 16,5 km/h
30.11.2017 12:00 1,4 C 84 % 1000,9 hPa 0,3 l/m 6,9 km/h N -1,0 C 0,6 C 18,9 km/h
30.11.2017 13:00 1,6 C 84 % 1001,0 hPa 2,9 l/m 10,8 km/h N -0,8 C -2,2 C 28,6 km/h
30.11.2017 14:00 1,5 C 84 % 1001,6 hPa 3,4 l/m 11,7 km/h N -0,9 C -3,0 C 28,2 km/h
30.11.2017 15:00 1,5 C 84 % 1002,8 hPa 1,6 l/m 11,6 km/h N -0,9 C -3,0 C 32,2 km/h
30.11.2017 16:00 1,5 C 84 % 1003,4 hPa 1,0 l/m 12,3 km/h N -0,9 C -3,3 C 29,4 km/h
30.11.2017 17:00 2,2 C 81 % 1004,1 hPa 0,5 l/m 11,9 km/h N -0,8 C -2,3 C 29,4 km/h
30.11.2017 18:00 2,5 C 80 % 1004,7 hPa 0,5 l/m 8,7 km/h N -0,6 C 0,4 C 25,4 km/h
30.11.2017 19:00 2,7 C 80 % 1005,6 hPa 0,5 l/m 4,7 km/h N -0,5 C 2,6 C 20,5 km/h
30.11.2017 20:00 2,7 C 78 % 1006,3 hPa 0,3 l/m 4,3 km/h N -0,8 C 2,7 C 17,7 km/h
30.11.2017 21:00 2,6 C 77 % 1006,9 hPa 0,3 l/m 4,2 km/h N -1,1 C 2,6 C 18,1 km/h
30.11.2017 22:00 2,4 C 76 % 1007,6 hPa 0,0 l/m 3,6 km/h N -1,3 C 2,4 C 20,1 km/h
30.11.2017 23:00 2,2 C 77 % 1008,4 hPa 0,3 l/m 1,4 km/h N -1,3 C 2,2 C 10,5 km/h
01.12.2017 00:00 2,1 C 79 % 1008,7 hPa 0,0 l/m 0,3 km/h N -1,3 C 2,1 C 2,4 km/h
01.12.2017 01:00 1,5 C 79 % 1009,1 hPa 0,0 l/m 0,5 km/h N -1,7 C 1,5 C 4,4 km/h
01.12.2017 02:00 0,0 C 80 % 1009,7 hPa 0,0 l/m 0,0 km/h N -3,0 C 0,0 C 0,0 km/h
01.12.2017 03:00 -1,6 C 82 % 1010,2 hPa 0,0 l/m 0,0 km/h N -4,3 C -1,6 C 0,4 km/h
01.12.2017 04:00 -0,6 C 84 % 1010,5 hPa 0,0 l/m 0,3 km/h N -3,0 C -0,6 C 4,0 km/h
01.12.2017 05:00 -0,3 C 84 % 1010,8 hPa 0,0 l/m 0,0 km/h N -2,7 C -0,3 C 0,8 km/h
01.12.2017 06:00 -1,6 C 84 % 1011,5 hPa 0,0 l/m 0,1 km/h N -3,9 C -1,6 C 0,4 km/h
01.12.2017 07:00 -2,0 C 84 % 1012,3 hPa 0,0 l/m 0,0 km/h N -4,3 C -2,0 C 0,5 km/h
01.12.2017 08:00 -2,7 C 84 % 1013,3 hPa 0,0 l/m 0,0 km/h N -5,0 C -2,7 C 1,6 km/h
01.12.2017 09:00 -1,6 C 84 % 1013,7 hPa 0,0 l/m 0,0 km/h N -3,9 C -1,6 C 0,0 km/h
01.12.2017 10:00 0,2 C 84 % 1014,0 hPa 0,0 l/m 0,0 km/h N -2,2 C 0,2 C 0,4 km/h
01.12.2017 11:00 1,6 C 84 % 1014,1 hPa 0,3 l/m 0,0 km/h N -0,8 C 1,6 C 2,0 km/h
01.12.2017 12:00 2,7 C 83 % 1014,2 hPa 0,0 l/m 0,0 km/h N -0,0 C 2,7 C 0,8 km/h
01.12.2017 13:00 3,3 C 78 % 1014,3 hPa 0,5 l/m 0,0 km/h N -0,2 C 3,3 C 0,8 km/h
01.12.2017 14:00 4,1 C 76 % 1014,6 hPa 0,5 l/m 0,0 km/h N 0,2 C 4,1 C 0,8 km/h
01.12.2017 15:00 3,3 C 74 % 1015,2 hPa 0,3 l/m 0,0 km/h N -1,0 C 3,3 C 0,4 km/h
01.12.2017 16:00 1,1 C 77 % 1016,0 hPa 0,0 l/m 0,0 km/h N -2,4 C 1,1 C 0,4 km/h
01.12.2017 17:00 -0,4 C 80 % 1017,0 hPa 0,0 l/m 0,0 km/h N -3,5 C -0,4 C 0,0 km/h
01.12.2017 18:00 -1,4 C 82 % 1017,7 hPa 0,0 l/m 0,0 km/h N -4,1 C -1,4 C 0,0 km/h
01.12.2017 19:00 -1,3 C 83 % 1018,0 hPa 0,0 l/m 0,0 km/h N -3,7 C -1,3 C 0,0 km/h
01.12.2017 20:00 -0,6 C 84 % 1018,7 hPa 0,0 l/m 0,0 km/h N -3,0 C -0,6 C 0,0 km/h
01.12.2017 21:00 -0,3 C 84 % 1019,3 hPa 0,0 l/m 0,0 km/h N -2,7 C -0,3 C 0,0 km/h
01.12.2017 22:00 -0,3 C 84 % 1019,7 hPa 0,0 l/m 0,0 km/h N -2,7 C -0,3 C 0,0 km/h
01.12.2017 23:00 -1,1 C 84 % 1019,9 hPa 0,0 l/m 0,0 km/h N -3,4 C -1,1 C 0,0 km/h
02.12.2017 00:00 -2,2 C 84 % 1020,0 hPa 0,0 l/m 0,0 km/h N -4,5 C -2,2 C 0,0 km/h
02.12.2017 01:00 -1,7 C 84 % 1019,8 hPa 0,0 l/m 0,0 km/h N -4,1 C -1,7 C 0,0 km/h
02.12.2017 02:00 -2,1 C 84 % 1020,5 hPa 0,0 l/m 0,0 km/h N -4,5 C -2,1 C 0,0 km/h
02.12.2017 03:00 -3,4 C 84 % 1021,2 hPa 0,0 l/m 0,0 km/h N -5,7 C -3,4 C 0,0 km/h
02.12.2017 04:00 -4,0 C 84 % 1021,7 hPa 0,0 l/m 0,0 km/h N -6,3 C -4,0 C 0,0 km/h
02.12.2017 05:00 -4,6 C 84 % 1022,1 hPa 0,0 l/m 0,0 km/h N -6,9 C -4,6 C 0,0 km/h
02.12.2017 06:00 -5,3 C 84 % 1022,4 hPa 0,0 l/m 0,0 km/h N -7,5 C -5,3 C 0,0 km/h
02.12.2017 07:00 -4,8 C 84 % 1022,6 hPa 0,0 l/m 0,0 km/h N -7,0 C -4,8 C 0,4 km/h
02.12.2017 08:00 -2,9 C 84 % 1023,2 hPa 0,0 l/m 3,1 km/h N -5,2 C -2,9 C 9,6 km/h
02.12.2017 09:00 -2,2 C 84 % 1023,7 hPa 0,0 l/m 4,3 km/h N -4,5 C -2,2 C 12,9 km/h
02.12.2017 10:00 -1,2 C 84 % 1024,2 hPa 0,0 l/m 5,6 km/h N -3,5 C -1,2 C 14,5 km/h
02.12.2017 11:00 -0,4 C 83 % 1024,6 hPa 0,0 l/m 5,8 km/h N -3,0 C -0,4 C 13,7 km/h
02.12.2017 12:00 -0,1 C 79 % 1024,3 hPa 0,0 l/m 5,9 km/h N -3,2 C -0,1 C 16,5 km/h
02.12.2017 13:00 0,6 C 76 % 1023,9 hPa 0,0 l/m 5,4 km/h N -3,2 C 0,5 C 14,9 km/h
02.12.2017 14:00 0,7 C 75 % 1024,0 hPa 0,0 l/m 6,9 km/h N -3,3 C -0,0 C 19,3 km/h
02.12.2017 15:00 0,2 C 76 % 1024,3 hPa 0,0 l/m 5,8 km/h N -3,5 C 0,0 C 16,9 km/h
02.12.2017 16:00 -0,3 C 79 % 1024,4 hPa 0,0 l/m 7,2 km/h N -3,6 C -1,3 C 19,7 km/h
02.12.2017 17:00 -0,6 C 79 % 1024,8 hPa 0,0 l/m 4,9 km/h N -3,7 C -0,7 C 14,9 km/h
02.12.2017 18:00 -0,7 C 80 % 1024,9 hPa 0,0 l/m 5,9 km/h N -3,6 C -0,8 C 16,1 km/h
02.12.2017 19:00 -0,3 C 80 % 1025,1 hPa 0,0 l/m 6,7 km/h N -3,3 C -0,9 C 17,3 km/h
02.12.2017 20:00 -0,4 C 80 % 1025,0 hPa 0,0 l/m 6,2 km/h N -3,4 C -0,5 C 16,5 km/h
02.12.2017 21:00 -0,6 C 81 % 1025,2 hPa 0,0 l/m 4,0 km/h N -3,4 C -0,6 C 11,7 km/h
02.12.2017 22:00 -0,7 C 81 % 1025,3 hPa 0,0 l/m 3,6 km/h N -3,5 C -0,7 C 10,1 km/h
02.12.2017 23:00 -0,6 C 81 % 1025,1 hPa 0,0 l/m 4,8 km/h N -3,5 C -0,6 C 12,1 km/h
03.12.2017 00:00 -0,6 C 81 % 1024,7 hPa 0,0 l/m 5,4 km/h N -3,6 C -0,6 C 15,3 km/h
03.12.2017 01:00 -0,7 C 80 % 1024,2 hPa 0,0 l/m 5,9 km/h N -3,6 C -0,8 C 14,1 km/h
03.12.2017 02:00 -0,7 C 81 % 1023,7 hPa 0,0 l/m 6,2 km/h N -3,6 C -0,8 C 16,9 km/h
03.12.2017 03:00 -0,9 C 81 % 1022,9 hPa 0,0 l/m 6,7 km/h N -3,7 C -1,3 C 19,7 km/h
03.12.2017 04:00 -0,8 C 81 % 1022,9 hPa 0,0 l/m 6,3 km/h N -3,6 C -1,0 C 17,3 km/h
03.12.2017 05:00 -0,6 C 81 % 1023,1 hPa 0,0 l/m 5,6 km/h N -3,5 C -0,7 C 16,1 km/h
03.12.2017 06:00 -0,5 C 81 % 1023,1 hPa 0,0 l/m 5,9 km/h N -3,3 C -0,7 C 18,5 km/h
03.12.2017 07:00 -0,2 C 80 % 1022,9 hPa 0,0 l/m 8,1 km/h N -3,2 C -1,9 C 20,9 km/h
03.12.2017 08:00 0,0 C 79 % 1022,8 hPa 0,0 l/m 8,4 km/h N -3,2 C -2,0 C 25,3 km/h
03.12.2017 09:00 0,4 C 77 % 1022,9 hPa 0,0 l/m 9,8 km/h N -3,2 C -2,8 C 24,1 km/h
03.12.2017 10:00 0,6 C 77 % 1023,2 hPa 0,0 l/m 9,7 km/h N -3,1 C -2,6 C 24,9 km/h
03.12.2017 11:00 1,2 C 75 % 1022,9 hPa 0,0 l/m 9,6 km/h N -2,8 C -1,8 C 24,1 km/h
03.12.2017 12:00 1,6 C 70 % 1022,5 hPa 0,0 l/m 10,0 km/h N -3,3 C -1,6 C 28,2 km/h
03.12.2017 13:00 1,2 C 76 % 1022,5 hPa 0,0 l/m 9,1 km/h N -2,6 C -1,3 C 22,9 km/h
03.12.2017 14:00 1,2 C 76 % 1022,4 hPa 0,0 l/m 8,4 km/h N -2,6 C -0,7 C 22,1 km/h
03.12.2017 15:00 1,1 C 74 % 1022,5 hPa 0,0 l/m 7,9 km/h N -3,0 C -0,4 C 21,3 km/h
03.12.2017 16:00 0,6 C 75 % 1023,0 hPa 0,0 l/m 7,1 km/h N -3,4 C -0,3 C 18,9 km/h
03.12.2017 17:00 0,4 C 73 % 1023,3 hPa 0,0 l/m 7,1 km/h N -3,8 C -0,6 C 20,9 km/h
03.12.2017 18:00 0,5 C 69 % 1023,5 hPa 0,0 l/m 9,7 km/h N -4,4 C -2,6 C 25,3 km/h
03.12.2017 19:00 0,4 C 68 % 1023,6 hPa 0,0 l/m 9,4 km/h N -4,9 C -2,4 C 27,4 km/h
03.12.2017 20:00 0,2 C 67 % 1023,8 hPa 0,3 l/m 9,8 km/h N -5,2 C -3,0 C 28,6 km/h
03.12.2017 21:00 -0,2 C 70 % 1023,9 hPa 0,0 l/m 5,4 km/h N -5,0 C -0,2 C 20,9 km/h
03.12.2017 22:00 0,3 C 69 % 1023,8 hPa 0,0 l/m 6,8 km/h N -4,8 C -0,3 C 24,5 km/h
03.12.2017 23:00 0,9 C 68 % 1023,7 hPa 0,0 l/m 7,5 km/h N -4,4 C -0,4 C 23,7 km/h
Min-Datum _ 02.12.17 27.11.17 30.11.17 - 27.11.17 - 02.12.17 02.12.17 27.11.17
_ Min-Zeit 06:45 14:15 11:30 - 16:45 - 06:45 06:45 16:45
Minimum _ -5,5 C 58 % 1000,7 hPa - 0,0 km/h - -7,8 C -5,5 C 0,0 km/h
Max-Datum _ 28.11.17 27.11.17 02.12.17 30.11.17 30.11.17 - 29.11.17 28.11.17 30.11.17
_ Max-Zeit 13:15 23:45 22:30 14:00 16:30 - 14:30 13:15 15:00
Maximum _ 6,7 C 84 % 1025,4 hPa 3,4 l/m 15,3 km/h
N
- 0,9 C 6,7 C 37,0 km/h
N
Durchschnitt _ 0,8 C 79 % 1015,4 hPa #20,5 l/m 3,1 km/h N -2,5 C 0,2 C 9,3 km/h